Jordan, MT

2:49 PM MST on March 06, 2015 (GMT -0700)
Wokal-Glasgow International | Change Station
CLOSE
Current Station
Airport
Location: Glasgow,
Elevation: 2293 ft
Nearby Weather Stations

Elev 2293 ft 48.21 °N, 106.62 °W | Updated 56 minutes ago

Overcast
Overcast
55 °F
Feels Like 55 °F
N
16
Wind Variable Wind from WNW

Today
High -- | Low -- °F
--% Chance of Precip.
Yesterday
High -- | Low -- °F
Precip. -- in
6:38 AM 5:59 PM
Full, 99% visible
Pressure 30.00 in
Visibility 10.0 miles
Clouds Clear
Dew Point 25 °F
Humidity 31%
Rainfall 0.00 in
Snow Depth Not available.
UV 4 out of 12
Pollen .30 out of 12
Air Quality Not available.
Flu Activity Not available.
METAR KGGW 062053Z AUTO 30014KT 10SM CLR 13/M04 A3000

More Conditions Fewer Conditions

Pressure 30.00 in
Visibility 10.0 miles
Clouds Clear
Dew Point 25 °F
Humidity 31%
Rainfall 0.00 in
Snow Depth Not available.
UV 4 out of 12
Pollen .30 out of 12
Air Quality Not available.
Flu Activity Not available.
METAR KGGW 062053Z AUTO 30014KT 10SM CLR 13/M04 A3000

More Conditions Fewer Conditions

10-Day Weather Forecast

Almanac

Astronomy

Mar. 06, 2015 Rise Set
Actual Time
Civil Twilight
Nautical Twilight
Astronomical Twilight
Moon
Length of Visible Light
Length of Day
Tomorrow will be .
, % of the Moon is Illuminated

Today's Extremes

State Highs State Lows

Community

WunderPhotos

Upload Photos

1,803,406 photos uploaded!

WunderBlogs® & News

Nearby

Air Quality

  Air Quality AQ Index Pollutant
Not available.

Snow Depth

Station Depth Elevation

Earthquake Activity

City Distance Mag. Time & Date
Minimum magnitude displayed is 2.5.

Coastal Water Temperatures

Place Temperature

Nearby Weather Stations